createdAt,value
2019-03-17T00:00:47.873Z,62.31
2019-03-17T00:03:12.368Z,63.18
2019-03-17T00:05:36.775Z,62.89
2019-03-17T00:08:01.169Z,62.24
2019-03-17T00:10:25.668Z,62.51
2019-03-17T00:12:50.147Z,62.45
2019-03-17T00:15:14.703Z,62.58
2019-03-17T00:17:41.671Z,62.48
2019-03-17T00:20:07.489Z,62.60
2019-03-17T00:22:31.888Z,62.80
2019-03-17T00:25:08.198Z,62.84
2019-03-17T00:27:22.521Z,62.18
2019-03-17T00:29:46.954Z,62.19
2019-03-17T00:32:11.432Z,62.52
2019-03-17T00:34:44.032Z,62.44
2019-03-17T00:37:02.070Z,62.65
2019-03-17T00:39:26.708Z,62.36
2019-03-17T00:41:51.200Z,62.34
2019-03-17T00:44:15.681Z,62.46
2019-03-17T00:46:40.269Z,62.56
2019-03-17T00:49:04.776Z,62.57
2019-03-17T00:51:29.190Z,62.24
2019-03-17T00:53:53.636Z,62.63
2019-03-17T00:56:18.218Z,62.25
2019-03-17T00:58:42.673Z,62.24
2019-03-17T01:01:07.159Z,62.34
2019-03-17T01:03:31.580Z,62.44
2019-03-17T01:05:56.160Z,61.96
2019-03-17T01:08:20.574Z,62.19
2019-03-17T01:10:45.018Z,61.84
2019-03-17T01:13:09.502Z,61.59
2019-03-17T01:15:34.005Z,61.76
2019-03-17T01:17:58.400Z,61.55
2019-03-17T01:20:22.822Z,61.59
2019-03-17T01:22:47.230Z,62.20
2019-03-17T01:25:11.732Z,62.15
2019-03-17T01:27:36.238Z,62.42
2019-03-17T01:30:00.683Z,62.70
2019-03-17T01:32:25.146Z,62.83
2019-03-17T01:34:49.598Z,62.83
2019-03-17T01:37:14.001Z,62.55
2019-03-17T01:39:38.496Z,62.52
2019-03-17T01:42:02.969Z,62.91
2019-03-17T01:44:27.395Z,62.58
2019-03-17T01:46:51.798Z,63.40
2019-03-17T01:49:16.315Z,63.20
2019-03-17T01:51:40.730Z,63.38
2019-03-17T01:54:05.135Z,62.99
2019-03-17T01:56:29.552Z,62.36
2019-03-17T01:58:53.968Z,62.33
2019-03-17T02:01:18.466Z,62.31
2019-03-17T02:03:42.882Z,62.58
2019-03-17T02:06:07.305Z,62.30
2019-03-17T02:08:31.714Z,62.02
2019-03-17T02:10:56.192Z,62.60
2019-03-17T02:13:20.613Z,62.45
2019-03-17T02:15:45.166Z,62.04
2019-03-17T02:18:09.583Z,62.37
2019-03-17T02:20:34.184Z,62.46
2019-03-17T02:22:59.184Z,62.49
2019-03-17T02:25:23.665Z,62.24
2019-03-17T02:27:48.082Z,62.01
2019-03-17T02:30:13.369Z,62.33
2019-03-17T02:32:37.766Z,62.09
2019-03-17T02:35:02.181Z,62.07
2019-03-17T02:37:26.583Z,61.93
2019-03-17T02:39:51.063Z,62.36
2019-03-17T02:42:15.554Z,61.98
2019-03-17T02:44:39.954Z,62.54
2019-03-17T02:47:04.518Z,62.61
2019-03-17T02:49:28.984Z,62.59
2019-03-17T02:51:53.420Z,62.83
2019-03-17T02:54:17.900Z,63.34
2019-03-17T02:56:42.374Z,63.66
2019-03-17T02:59:06.780Z,63.19
2019-03-17T03:01:31.265Z,63.35
2019-03-17T03:03:55.712Z,64.23
2019-03-17T03:06:20.142Z,64.51
2019-03-17T03:08:44.562Z,63.97
2019-03-17T03:11:08.984Z,63.37
2019-03-17T03:13:33.397Z,63.26
2019-03-17T03:15:57.816Z,64.02
2019-03-17T03:18:22.219Z,64.12
2019-03-17T03:20:46.637Z,63.84
2019-03-17T03:23:11.037Z,64.15
2019-03-17T03:25:35.484Z,63.69
2019-03-17T03:27:59.872Z,63.86
2019-03-17T03:30:24.294Z,64.11
2019-03-17T03:32:48.718Z,64.13
2019-03-17T03:35:13.256Z,64.23
2019-03-17T03:37:37.672Z,63.60
2019-03-17T03:40:02.091Z,63.18
2019-03-17T03:42:26.509Z,63.88
2019-03-17T03:44:50.929Z,63.64
2019-03-17T03:47:15.411Z,63.35
2019-03-17T03:49:39.798Z,63.59
2019-03-17T03:52:04.312Z,63.76
2019-03-17T03:54:28.701Z,63.19
2019-03-17T03:56:53.301Z,63.21
2019-03-17T03:59:17.774Z,62.57
2019-03-17T04:01:42.275Z,63.64
2019-03-17T04:04:06.672Z,63.95
2019-03-17T04:06:31.104Z,63.99
2019-03-17T04:08:55.593Z,63.32
2019-03-17T04:11:20.025Z,63.31
2019-03-17T04:13:44.504Z,63.06
2019-03-17T04:16:08.934Z,63.11
2019-03-17T04:18:33.343Z,62.95
2019-03-17T04:20:57.750Z,62.90
2019-03-17T04:23:22.397Z,63.16
2019-03-17T04:25:46.793Z,64.18
2019-03-17T04:28:11.221Z,63.75
2019-03-17T04:30:35.703Z,64.15
2019-03-17T04:33:00.133Z,63.81
2019-03-17T04:35:24.525Z,63.74
2019-03-17T04:37:48.949Z,64.74
2019-03-17T04:40:13.425Z,63.90
2019-03-17T04:42:37.849Z,64.62
2019-03-17T04:45:02.255Z,64.28
2019-03-17T04:47:26.676Z,64.72
2019-03-17T04:49:51.079Z,64.48
2019-03-17T04:52:15.517Z,65.09
2019-03-17T04:54:39.985Z,64.15
2019-03-17T04:57:04.482Z,64.88
2019-03-17T04:59:28.879Z,64.71
2019-03-17T05:01:53.309Z,65.08
2019-03-17T05:04:17.706Z,65.01
2019-03-17T05:06:52.009Z,64.32
2019-03-17T05:09:08.537Z,64.30
2019-03-17T05:11:32.940Z,65.02
2019-03-17T05:13:57.396Z,64.14
2019-03-17T05:16:21.798Z,64.10
2019-03-17T05:18:46.221Z,63.55
2019-03-17T05:21:10.625Z,63.89
2019-03-17T05:23:35.087Z,64.09
2019-03-17T05:25:59.478Z,64.11
2019-03-17T05:28:24.052Z,63.97
2019-03-17T05:30:48.461Z,64.12
2019-03-17T05:33:12.887Z,64.51
2019-03-17T05:35:37.295Z,65.01
2019-03-17T05:38:01.718Z,64.52
2019-03-17T05:40:26.122Z,64.35
2019-03-17T05:42:50.614Z,64.23
2019-03-17T05:45:15.012Z,64.19
2019-03-17T05:47:39.443Z,64.28
2019-03-17T05:50:05.480Z,64.12
2019-03-17T05:52:29.897Z,64.35
2019-03-17T05:54:54.295Z,64.54
2019-03-17T05:57:18.741Z,64.43
2019-03-17T05:59:43.146Z,64.49
2019-03-17T06:02:07.539Z,64.12
2019-03-17T06:04:31.957Z,63.90
2019-03-17T06:06:56.447Z,64.72
2019-03-17T06:09:20.874Z,64.15
2019-03-17T06:11:45.271Z,64.78
2019-03-17T06:14:09.833Z,63.81
2019-03-17T06:16:34.558Z,64.59
2019-03-17T06:18:59.877Z,64.54
2019-03-17T06:21:25.030Z,64.29
2019-03-17T06:23:49.718Z,64.45
2019-03-17T06:26:17.461Z,64.67
2019-03-17T06:28:42.232Z,64.72
2019-03-17T06:31:08.155Z,64.66
2019-03-17T06:33:33.651Z,65.04
2019-03-17T06:35:58.855Z,65.05
2019-03-17T06:38:23.757Z,64.60
2019-03-17T06:40:48.341Z,64.38
2019-03-17T06:43:14.305Z,64.41
2019-03-17T06:45:40.519Z,64.38
2019-03-17T06:48:06.662Z,64.11
2019-03-17T06:50:31.310Z,64.24
2019-03-17T06:52:55.753Z,63.90
2019-03-17T06:55:20.183Z,63.34
2019-03-17T06:57:44.675Z,63.50
2019-03-17T07:00:11.258Z,63.75
2019-03-17T07:02:35.657Z,63.97
2019-03-17T07:05:00.278Z,64.27
2019-03-17T07:07:25.347Z,64.78
2019-03-17T07:09:49.805Z,64.96
2019-03-17T07:12:14.212Z,65.23
2019-03-17T07:14:38.656Z,66.15
2019-03-17T07:17:03.064Z,66.05
2019-03-17T07:19:27.561Z,65.96
2019-03-17T07:21:51.986Z,66.27
2019-03-17T07:24:16.559Z,65.92
2019-03-17T07:26:40.958Z,65.67
2019-03-17T07:29:05.475Z,65.66
2019-03-17T07:31:29.886Z,65.61
2019-03-17T07:33:54.328Z,65.39
2019-03-17T07:36:18.738Z,65.99
2019-03-17T07:38:43.247Z,65.67
2019-03-17T07:41:07.669Z,65.83
2019-03-17T07:43:32.248Z,66.50
2019-03-17T07:45:56.663Z,65.99
2019-03-17T07:48:21.081Z,66.53
2019-03-17T07:50:45.605Z,66.05
2019-03-17T07:53:10.015Z,66.54
2019-03-17T07:55:34.438Z,66.10
2019-03-17T07:57:58.847Z,65.90
2019-03-17T08:00:31.919Z,65.70
2019-03-17T08:02:49.455Z,66.03
2019-03-17T08:05:13.876Z,66.21
2019-03-17T08:07:38.756Z,65.64
2019-03-17T08:10:03.854Z,65.29
2019-03-17T08:12:28.292Z,65.47
2019-03-17T08:14:52.700Z,65.42
2019-03-17T08:17:17.114Z,65.54
2019-03-17T08:19:41.543Z,65.53
2019-03-17T08:22:06.518Z,65.86
2019-03-17T08:24:30.956Z,66.10
2019-03-17T08:26:55.381Z,65.87
2019-03-17T08:29:19.878Z,66.08
2019-03-17T08:31:44.274Z,65.82
2019-03-17T08:34:08.781Z,65.28
2019-03-17T08:36:33.183Z,65.24
2019-03-17T08:38:57.610Z,65.36
2019-03-17T08:41:22.156Z,65.53
2019-03-17T08:43:54.144Z,65.95
2019-03-17T08:46:12.715Z,66.01
2019-03-17T08:48:37.208Z,65.71
2019-03-17T08:51:01.791Z,65.82
2019-03-17T08:53:26.220Z,65.55
2019-03-17T08:55:50.734Z,65.51
2019-03-17T08:58:15.225Z,65.96
2019-03-17T09:00:39.664Z,65.89
2019-03-17T09:03:04.223Z,66.06
2019-03-17T09:05:28.736Z,66.56
2019-03-17T09:07:53.153Z,66.52
2019-03-17T09:10:17.684Z,66.35
2019-03-17T09:12:42.152Z,66.52
2019-03-17T09:15:06.926Z,66.74
2019-03-17T09:17:31.340Z,67.32
2019-03-17T09:19:55.802Z,67.39
2019-03-17T09:22:20.292Z,67.61
2019-03-17T09:24:44.728Z,67.73
2019-03-17T09:27:09.135Z,67.87
2019-03-17T09:29:33.562Z,68.08
2019-03-17T09:31:57.989Z,67.62
2019-03-17T09:34:22.408Z,68.02
2019-03-17T09:36:46.920Z,68.38
2019-03-17T09:39:11.319Z,68.87
2019-03-17T09:41:35.754Z,71.30
2019-03-17T09:44:00.177Z,73.58
2019-03-17T09:46:24.602Z,75.79
2019-03-17T09:48:49.067Z,76.40
2019-03-17T09:51:13.498Z,77.51
2019-03-17T09:53:37.905Z,77.91
2019-03-17T09:56:02.335Z,77.99
2019-03-17T09:58:26.750Z,77.95
2019-03-17T10:00:51.249Z,77.66
2019-03-17T10:03:15.667Z,77.13
2019-03-17T10:05:40.097Z,76.60
2019-03-17T10:08:04.634Z,77.16
2019-03-17T10:10:29.139Z,77.09
2019-03-17T10:12:53.565Z,76.62
2019-03-17T10:15:20.082Z,76.88
2019-03-17T10:17:44.475Z,76.85
2019-03-17T10:20:14.400Z,76.35
2019-03-17T10:22:39.925Z,76.11
2019-03-17T10:25:05.447Z,76.85
2019-03-17T10:27:29.904Z,77.07
2019-03-17T10:29:54.308Z,76.91
2019-03-17T10:32:18.809Z,76.58
2019-03-17T10:34:43.199Z,76.56
2019-03-17T10:37:07.831Z,75.93
2019-03-17T10:39:32.289Z,75.35
2019-03-17T10:41:57.058Z,74.79
2019-03-17T10:44:21.553Z,75.23
2019-03-17T10:46:45.991Z,74.84
2019-03-17T10:49:10.367Z,74.79
2019-03-17T10:51:34.799Z,73.86
2019-03-17T10:53:59.232Z,75.09
2019-03-17T10:56:23.676Z,74.15
2019-03-17T10:58:48.117Z,73.68
2019-03-17T11:01:12.601Z,73.70
2019-03-17T11:03:37.009Z,74.78
2019-03-17T11:06:01.526Z,73.90
2019-03-17T11:08:25.988Z,74.68
2019-03-17T11:10:50.473Z,73.26
2019-03-17T11:13:14.982Z,73.95
2019-03-17T11:15:39.460Z,74.11
2019-03-17T11:18:03.984Z,74.19
2019-03-17T11:20:28.376Z,73.94
2019-03-17T11:22:52.912Z,73.44
2019-03-17T11:25:20.741Z,73.14
2019-03-17T11:27:45.240Z,73.32
2019-03-17T11:30:17.085Z,72.34
2019-03-17T11:32:41.536Z,72.01
2019-03-17T11:35:06.695Z,72.53
2019-03-17T11:37:31.142Z,70.98
2019-03-17T11:39:55.543Z,70.72
2019-03-17T11:42:19.972Z,70.15
2019-03-17T11:44:44.534Z,70.28
2019-03-17T11:47:09.059Z,69.42
2019-03-17T11:49:33.612Z,69.34
2019-03-17T11:51:58.051Z,69.66
2019-03-17T11:54:22.464Z,69.62
2019-03-17T11:56:47.023Z,70.04
2019-03-17T11:59:11.536Z,69.43
2019-03-17T12:01:35.966Z,69.05
2019-03-17T12:04:06.803Z,68.25
2019-03-17T12:06:26.623Z,68.60
2019-03-17T12:08:51.132Z,67.14
2019-03-17T12:11:15.690Z,68.04
2019-03-17T12:13:40.119Z,67.22
2019-03-17T12:16:04.755Z,67.36
2019-03-17T12:18:29.189Z,67.23
2019-03-17T12:20:53.673Z,67.57
2019-03-17T12:23:18.107Z,68.03
2019-03-17T12:25:42.664Z,67.61
2019-03-17T12:28:07.095Z,66.90
2019-03-17T12:30:31.569Z,67.10
2019-03-17T12:32:56.665Z,67.76
2019-03-17T12:35:21.197Z,67.79
2019-03-17T12:37:45.622Z,67.37
2019-03-17T12:40:10.181Z,67.41
2019-03-17T12:42:34.610Z,67.48
2019-03-17T12:44:59.006Z,67.17
2019-03-17T12:47:23.451Z,67.82
2019-03-17T12:49:48.042Z,67.13
2019-03-17T12:52:12.611Z,67.06
2019-03-17T12:54:37.033Z,66.34
2019-03-17T12:57:01.619Z,66.60
2019-03-17T12:59:26.053Z,66.38
2019-03-17T13:01:50.461Z,66.27
2019-03-17T13:04:15.017Z,66.20
2019-03-17T13:06:39.439Z,67.01
2019-03-17T13:09:05.476Z,66.66
2019-03-17T13:11:29.883Z,66.51
2019-03-17T13:13:54.368Z,66.16
2019-03-17T13:16:18.889Z,63.93
2019-03-17T13:18:43.404Z,63.75
2019-03-17T13:21:07.813Z,62.21
2019-03-17T13:23:32.269Z,58.64
2019-03-17T13:25:56.694Z,54.86
2019-03-17T13:28:21.289Z,54.44
2019-03-17T13:30:45.711Z,54.08
2019-03-17T13:33:10.131Z,54.16
2019-03-17T13:35:34.547Z,52.47
2019-03-17T13:37:59.071Z,55.54
2019-03-17T13:40:29.397Z,54.14
2019-03-17T13:42:49.679Z,58.48
2019-03-17T13:45:14.775Z,57.83
2019-03-17T13:47:39.189Z,58.81
2019-03-17T13:50:04.951Z,59.01
2019-03-17T13:52:29.381Z,60.81
2019-03-17T13:54:53.824Z,61.57
2019-03-17T13:57:18.223Z,63.00
2019-03-17T13:59:42.648Z,64.51
2019-03-17T14:02:07.124Z,65.08
2019-03-17T14:04:33.080Z,63.83
2019-03-17T14:06:57.476Z,62.30
2019-03-17T14:09:21.897Z,60.86
2019-03-17T14:11:46.297Z,60.60
2019-03-17T14:14:10.734Z,54.68
2019-03-17T14:16:35.227Z,52.66
2019-03-17T14:18:59.647Z,53.79
2019-03-17T14:21:24.649Z,54.50
2019-03-17T14:23:49.154Z,52.33
2019-03-17T14:26:13.572Z,51.07
2019-03-17T14:28:38.028Z,52.87
2019-03-17T14:31:02.529Z,50.41
2019-03-17T14:33:26.997Z,49.66
2019-03-17T14:35:51.623Z,48.73
2019-03-17T14:38:16.224Z,51.20
2019-03-17T14:40:52.515Z,52.38
2019-03-17T14:43:06.859Z,58.35
2019-03-17T14:45:31.439Z,60.27
2019-03-17T14:47:55.980Z,59.97
2019-03-17T14:50:24.660Z,61.60
2019-03-17T14:52:49.047Z,63.23
2019-03-17T14:55:13.558Z,65.34
2019-03-17T14:57:37.943Z,67.19
2019-03-17T15:00:02.354Z,68.25
2019-03-17T15:02:26.742Z,70.19
2019-03-17T15:04:51.186Z,72.25
2019-03-17T15:07:15.577Z,73.17
2019-03-17T15:09:40.026Z,72.91
2019-03-17T15:12:04.554Z,72.95
2019-03-17T15:14:28.989Z,73.73
2019-03-17T15:16:53.585Z,73.02
2019-03-17T15:19:18.048Z,71.16
2019-03-17T15:21:44.078Z,60.50
2019-03-17T15:24:08.600Z,63.55
2019-03-17T15:26:32.989Z,63.09
2019-03-17T15:28:57.420Z,57.54
2019-03-17T15:31:21.906Z,60.66
2019-03-17T15:33:46.314Z,48.68
2019-03-17T15:36:10.724Z,44.47
2019-03-17T15:38:35.129Z,44.22
2019-03-17T15:40:59.551Z,46.24
2019-03-17T15:43:24.025Z,42.03
2019-03-17T15:45:50.062Z,44.04
2019-03-17T15:48:14.452Z,41.77
2019-03-17T15:50:38.906Z,42.42
2019-03-17T15:53:03.290Z,43.03
2019-03-17T15:55:27.724Z,44.20
2019-03-17T15:57:52.189Z,44.64
2019-03-17T16:00:26.013Z,44.45
2019-03-17T16:02:50.052Z,45.03
2019-03-17T16:05:14.611Z,46.95
2019-03-17T16:07:42.570Z,56.00
2019-03-17T16:10:16.285Z,61.39
2019-03-17T16:12:40.696Z,63.60
2019-03-17T16:15:07.953Z,64.18
2019-03-17T16:17:32.355Z,64.47
2019-03-17T16:19:56.779Z,64.87
2019-03-17T16:22:21.191Z,64.85
2019-03-17T16:24:45.589Z,52.04
2019-03-17T16:27:10.204Z,48.29
2019-03-17T16:29:34.634Z,45.61
2019-03-17T16:31:59.133Z,47.18
2019-03-17T16:34:23.538Z,48.06
2019-03-17T16:36:48.078Z,48.51
2019-03-17T16:39:12.553Z,50.95
2019-03-17T16:41:43.250Z,49.66
2019-03-17T16:44:03.130Z,51.53
2019-03-17T16:46:27.624Z,59.07
2019-03-17T16:48:52.026Z,60.38
2019-03-17T16:51:16.536Z,61.31
2019-03-17T16:53:40.945Z,62.26
2019-03-17T16:56:05.454Z,63.51
2019-03-17T16:58:29.848Z,63.49
2019-03-17T17:00:54.264Z,63.87
2019-03-17T17:03:18.650Z,64.35
2019-03-17T17:05:43.072Z,64.33
2019-03-17T17:08:07.481Z,64.48
2019-03-17T17:10:32.005Z,64.72
2019-03-17T17:12:56.544Z,65.31
2019-03-17T17:15:29.093Z,65.03
2019-03-17T17:17:53.476Z,64.56
2019-03-17T17:20:20.025Z,64.23
2019-03-17T17:22:44.591Z,64.60
2019-03-17T17:25:10.934Z,64.92
2019-03-17T17:27:36.279Z,64.63
2019-03-17T17:30:00.686Z,64.89
2019-03-17T17:32:25.138Z,64.92
2019-03-17T17:34:49.592Z,64.72
2019-03-17T17:37:14.022Z,64.38
2019-03-17T17:39:38.576Z,64.21
2019-03-17T17:42:08.962Z,64.51
2019-03-17T17:44:29.083Z,64.41
2019-03-17T17:46:53.590Z,64.33
2019-03-17T17:49:17.983Z,64.84
2019-03-17T17:51:42.400Z,64.82
2019-03-17T17:54:06.880Z,64.63
2019-03-17T17:56:31.304Z,64.94
2019-03-17T17:58:55.705Z,65.24
2019-03-17T18:01:20.162Z,64.78
2019-03-17T18:03:51.513Z,65.03
2019-03-17T18:06:10.773Z,65.51
2019-03-17T18:08:35.250Z,65.36
2019-03-17T18:10:59.633Z,65.05
2019-03-17T18:13:24.058Z,65.33
2019-03-17T18:15:48.450Z,65.52
2019-03-17T18:18:13.037Z,65.37
2019-03-17T18:20:37.427Z,64.88
2019-03-17T18:23:01.944Z,65.58
2019-03-17T18:25:26.404Z,66.29
2019-03-17T18:27:50.918Z,66.54
2019-03-17T18:30:21.935Z,67.09
2019-03-17T18:32:46.391Z,67.16
2019-03-17T18:35:12.071Z,67.66
2019-03-17T18:37:36.541Z,67.81
2019-03-17T18:40:00.953Z,68.06
2019-03-17T18:42:33.130Z,67.74
2019-03-17T18:44:51.586Z,67.79
2019-03-17T18:47:16.099Z,68.03
2019-03-17T18:49:40.516Z,67.52
2019-03-17T18:52:05.003Z,67.32
2019-03-17T18:54:29.401Z,67.08
2019-03-17T18:56:54.026Z,67.42
2019-03-17T18:59:18.484Z,67.09
2019-03-17T19:01:42.915Z,66.16
2019-03-17T19:04:07.371Z,65.59
2019-03-17T19:06:31.779Z,65.28
2019-03-17T19:08:56.206Z,65.07
2019-03-17T19:11:20.602Z,65.38
2019-03-17T19:13:45.097Z,65.43
2019-03-17T19:16:09.529Z,65.28
2019-03-17T19:18:34.395Z,64.90
2019-03-17T19:20:58.904Z,64.06
2019-03-17T19:23:23.436Z,65.14
2019-03-17T19:25:47.860Z,65.91
2019-03-17T19:28:12.433Z,65.70
2019-03-17T19:30:36.955Z,65.68
2019-03-17T19:33:01.383Z,66.93
2019-03-17T19:35:25.796Z,66.87
2019-03-17T19:37:50.763Z,66.50
2019-03-17T19:40:19.824Z,67.08
2019-03-17T19:42:44.255Z,66.80
2019-03-17T19:45:08.996Z,66.89
2019-03-17T19:47:33.571Z,66.90
2019-03-17T19:49:58.059Z,66.82
2019-03-17T19:52:22.469Z,67.02
2019-03-17T19:54:47.216Z,67.35
2019-03-17T19:57:12.055Z,67.41
2019-03-17T19:59:36.473Z,66.87
2019-03-17T20:02:00.880Z,67.01
2019-03-17T20:04:30.426Z,67.22
2019-03-17T20:06:51.497Z,66.37
2019-03-17T20:09:15.942Z,66.97
2019-03-17T20:11:40.332Z,66.71
2019-03-17T20:14:04.894Z,66.59
2019-03-17T20:16:29.286Z,66.72
2019-03-17T20:18:53.704Z,66.67
2019-03-17T20:21:18.185Z,66.31
2019-03-17T20:23:42.618Z,66.34
2019-03-17T20:26:07.030Z,66.43
2019-03-17T20:28:31.571Z,65.87
2019-03-17T20:30:55.970Z,65.68
2019-03-17T20:33:20.399Z,66.23
2019-03-17T20:35:44.872Z,66.07
2019-03-17T20:38:09.402Z,66.30
2019-03-17T20:40:33.884Z,66.60
2019-03-17T20:42:58.494Z,66.54
2019-03-17T20:45:23.020Z,66.02
2019-03-17T20:47:47.493Z,65.58
2019-03-17T20:50:15.871Z,65.84
2019-03-17T20:52:40.326Z,65.14
2019-03-17T20:55:06.413Z,64.93
2019-03-17T20:57:30.819Z,65.35
2019-03-17T20:59:55.225Z,65.05
2019-03-17T21:02:19.600Z,65.23
2019-03-17T21:04:44.033Z,65.67
2019-03-17T21:07:08.448Z,65.66
2019-03-17T21:09:32.946Z,65.78
2019-03-17T21:11:57.336Z,65.70
2019-03-17T21:14:21.784Z,65.63
2019-03-17T21:16:46.190Z,65.92
2019-03-17T21:19:10.654Z,66.44
2019-03-17T21:21:35.045Z,67.14
2019-03-17T21:23:59.562Z,67.17
2019-03-17T21:26:23.966Z,66.99
2019-03-17T21:28:48.479Z,66.85
2019-03-17T21:31:12.933Z,66.85
2019-03-17T21:33:40.148Z,66.93
2019-03-17T21:36:03.552Z,66.49
2019-03-17T21:38:28.043Z,66.23
2019-03-17T21:41:06.191Z,65.84
2019-03-17T21:43:18.709Z,65.92
2019-03-17T21:45:43.154Z,65.63
2019-03-17T21:48:07.561Z,65.52
2019-03-17T21:50:31.969Z,65.97
2019-03-17T21:52:56.372Z,65.22
2019-03-17T21:55:20.875Z,65.10
2019-03-17T21:57:45.411Z,65.11
2019-03-17T22:00:12.877Z,64.63
2019-03-17T22:02:37.288Z,64.23
2019-03-17T22:05:01.711Z,64.47
2019-03-17T22:07:26.104Z,65.03
2019-03-17T22:09:50.561Z,65.07
2019-03-17T22:12:14.955Z,64.85
2019-03-17T22:14:39.505Z,64.03
2019-03-17T22:17:04.105Z,64.50
2019-03-17T22:19:28.520Z,64.75
2019-03-17T22:21:52.984Z,65.14
2019-03-17T22:24:17.378Z,65.19
2019-03-17T22:26:41.842Z,64.68
2019-03-17T22:29:06.320Z,65.36
2019-03-17T22:31:30.810Z,65.27
2019-03-17T22:33:55.185Z,65.17
2019-03-17T22:36:19.686Z,65.27
2019-03-17T22:38:44.107Z,64.82
2019-03-17T22:41:08.671Z,64.53
2019-03-17T22:43:33.072Z,64.27
2019-03-17T22:45:57.497Z,64.49
2019-03-17T22:48:21.896Z,64.67
2019-03-17T22:50:46.326Z,64.46
2019-03-17T22:53:10.733Z,64.18
2019-03-17T22:55:35.167Z,64.47
2019-03-17T22:57:59.582Z,64.99
2019-03-17T23:00:34.722Z,65.06
2019-03-17T23:02:59.231Z,65.57
2019-03-17T23:05:23.681Z,65.32
2019-03-17T23:07:48.171Z,65.84
2019-03-17T23:10:13.220Z,65.62
2019-03-17T23:12:37.641Z,66.44
2019-03-17T23:15:02.082Z,66.00
2019-03-17T23:17:26.558Z,65.92
2019-03-17T23:19:50.965Z,66.21
2019-03-17T23:22:15.392Z,66.68
2019-03-17T23:24:39.812Z,66.96
2019-03-17T23:27:04.365Z,66.25
2019-03-17T23:29:28.794Z,66.60
2019-03-17T23:31:53.235Z,67.16
2019-03-17T23:34:17.650Z,66.71
2019-03-17T23:36:42.063Z,66.18
2019-03-17T23:39:06.924Z,67.04
2019-03-17T23:41:31.342Z,66.59
2019-03-17T23:43:55.758Z,67.32
2019-03-17T23:46:20.195Z,67.79
2019-03-17T23:48:44.611Z,67.71
2019-03-17T23:51:09.116Z,66.90
2019-03-17T23:53:33.589Z,67.15
2019-03-17T23:55:58.010Z,67.91
2019-03-17T23:58:22.420Z,67.48
